sensor_id;sensor_type;location;lat;lon;timestamp;pressure;altitude;pressure_sealevel;temperature;humidity
53715;BME280;39608;55.630;37.864;2023-06-19T00:03:40;99709.13;;;17.18;39.56
53715;BME280;39608;55.630;37.864;2023-06-19T00:08:42;99717.09;;;17.10;39.63
53715;BME280;39608;55.630;37.864;2023-06-19T00:13:46;99711.81;;;17.05;39.74
53715;BME280;39608;55.630;37.864;2023-06-19T00:18:48;99713.66;;;16.92;40.34
53715;BME280;39608;55.630;37.864;2023-06-19T00:23:50;99708.72;;;16.86;40.38
53715;BME280;39608;55.630;37.864;2023-06-19T00:28:54;99717.22;;;16.84;40.99
53715;BME280;39608;55.630;37.864;2023-06-19T00:33:56;99716.16;;;16.76;41.06
53715;BME280;39608;55.630;37.864;2023-06-19T00:38:57;99715.88;;;16.69;40.93
53715;BME280;39608;55.630;37.864;2023-06-19T00:44:01;99715.63;;;16.62;40.90
53715;BME280;39608;55.630;37.864;2023-06-19T00:49:03;99715.31;;;16.55;40.94
53715;BME280;39608;55.630;37.864;2023-06-19T00:54:05;99710.38;;;16.39;41.11
53715;BME280;39608;55.630;37.864;2023-06-19T00:59:14;99717.97;;;16.42;40.74
53715;BME280;39608;55.630;37.864;2023-06-19T01:04:17;99718.19;;;16.29;40.92
53715;BME280;39608;55.630;37.864;2023-06-19T01:09:20;99710.94;;;16.24;41.03
53715;BME280;39608;55.630;37.864;2023-06-19T01:14:26;99711.31;;;16.14;41.36
53715;BME280;39608;55.630;37.864;2023-06-19T01:19:30;99717.94;;;16.04;41.73
53715;BME280;39608;55.630;37.864;2023-06-19T01:24:34;99719.34;;;16.10;41.32
53715;BME280;39608;55.630;37.864;2023-06-19T01:29:36;99718.41;;;16.06;41.48
53715;BME280;39608;55.630;37.864;2023-06-19T01:34:38;99714.56;;;15.98;41.69
53715;BME280;39608;55.630;37.864;2023-06-19T01:39:44;99721.66;;;15.90;42.19
53715;BME280;39608;55.630;37.864;2023-06-19T01:44:47;99718.75;;;15.96;42.02
53715;BME280;39608;55.630;37.864;2023-06-19T01:49:49;99717.16;;;15.86;42.23
53715;BME280;39608;55.630;37.864;2023-06-19T01:54:53;99725.88;;;15.79;42.73
53715;BME280;39608;55.630;37.864;2023-06-19T01:59:55;99720.56;;;15.74;42.37
53715;BME280;39608;55.630;37.864;2023-06-19T02:04:57;99720.72;;;15.69;42.57
53715;BME280;39608;55.630;37.864;2023-06-19T02:10:01;99723.75;;;15.76;42.31
53715;BME280;39608;55.630;37.864;2023-06-19T02:15:05;99722.63;;;15.77;42.44
53715;BME280;39608;55.630;37.864;2023-06-19T02:20:10;99725.03;;;15.87;42.29
53715;BME280;39608;55.630;37.864;2023-06-19T02:25:13;99727.63;;;15.93;42.27
53715;BME280;39608;55.630;37.864;2023-06-19T02:30:15;99727.44;;;15.89;42.43
53715;BME280;39608;55.630;37.864;2023-06-19T02:35:18;99722.47;;;15.91;42.41
53715;BME280;39608;55.630;37.864;2023-06-19T02:40:21;99725.03;;;15.87;42.30
53715;BME280;39608;55.630;37.864;2023-06-19T02:45:23;99724.41;;;15.82;42.51
53715;BME280;39608;55.630;37.864;2023-06-19T02:50:25;99717.03;;;15.82;42.63
53715;BME280;39608;55.630;37.864;2023-06-19T02:55:29;99729.56;;;15.83;43.01
53715;BME280;39608;55.630;37.864;2023-06-19T03:00:31;99721.66;;;15.90;42.72
53715;BME280;39608;55.630;37.864;2023-06-19T03:05:33;99707.81;;;15.96;42.64
53715;BME280;39608;55.630;37.864;2023-06-19T03:10:36;99707.34;;;15.94;42.71
53715;BME280;39608;55.630;37.864;2023-06-19T03:15:39;99716.97;;;16.00;42.51
53715;BME280;39608;55.630;37.864;2023-06-19T03:20:40;99704.09;;;16.00;42.36
53715;BME280;39608;55.630;37.864;2023-06-19T03:25:44;99718.34;;;16.23;42.32
53715;BME280;39608;55.630;37.864;2023-06-19T03:30:46;99717.00;;;16.38;42.01
53715;BME280;39608;55.630;37.864;2023-06-19T03:35:48;99722.09;;;16.49;42.09
53715;BME280;39608;55.630;37.864;2023-06-19T03:40:51;99718.38;;;16.53;42.20
53715;BME280;39608;55.630;37.864;2023-06-19T03:45:53;99720.09;;;16.67;41.92
53715;BME280;39608;55.630;37.864;2023-06-19T03:50:55;99725.66;;;16.79;41.65
53715;BME280;39608;55.630;37.864;2023-06-19T03:55:59;99730.38;;;17.00;41.51
53715;BME280;39608;55.630;37.864;2023-06-19T04:01:01;99729.06;;;17.06;41.07
53715;BME280;39608;55.630;37.864;2023-06-19T04:06:03;99729.19;;;17.09;41.10
53715;BME280;39608;55.630;37.864;2023-06-19T04:11:07;99729.47;;;17.17;40.99
53715;BME280;39608;55.630;37.864;2023-06-19T04:16:09;99733.19;;;17.33;40.82
53715;BME280;39608;55.630;37.864;2023-06-19T04:21:11;99729.84;;;17.49;40.61
53715;BME280;39608;55.630;37.864;2023-06-19T04:26:15;99730.25;;;17.59;40.27
53715;BME280;39608;55.630;37.864;2023-06-19T04:31:18;99725.34;;;17.65;40.30
53715;BME280;39608;55.630;37.864;2023-06-19T04:36:20;99719.19;;;17.68;40.07
53715;BME280;39608;55.630;37.864;2023-06-19T04:41:23;99714.94;;;17.92;40.03
53715;BME280;39608;55.630;37.864;2023-06-19T04:46:25;99726.31;;;18.15;39.61
53715;BME280;39608;55.630;37.864;2023-06-19T04:51:27;99721.88;;;18.35;39.07
53715;BME280;39608;55.630;37.864;2023-06-19T04:56:31;99723.94;;;18.51;39.08
53715;BME280;39608;55.630;37.864;2023-06-19T05:01:33;99723.81;;;18.72;38.60
53715;BME280;39608;55.630;37.864;2023-06-19T05:06:36;99725.22;;;18.90;38.49
53715;BME280;39608;55.630;37.864;2023-06-19T05:11:39;99725.06;;;19.11;37.99
53715;BME280;39608;55.630;37.864;2023-06-19T05:16:41;99735.81;;;19.17;37.71
53715;BME280;39608;55.630;37.864;2023-06-19T05:21:43;99726.03;;;19.31;37.70
53715;BME280;39608;55.630;37.864;2023-06-19T05:26:47;99725.78;;;19.65;36.87
53715;BME280;39608;55.630;37.864;2023-06-19T05:31:48;99723.19;;;20.29;36.54
53715;BME280;39608;55.630;37.864;2023-06-19T05:36:50;99726.41;;;21.18;35.17
53715;BME280;39608;55.630;37.864;2023-06-19T05:41:54;99726.28;;;21.89;33.82
53715;BME280;39608;55.630;37.864;2023-06-19T05:46:56;99720.59;;;22.25;31.33
53715;BME280;39608;55.630;37.864;2023-06-19T05:51:58;99714.81;;;22.56;31.01
53715;BME280;39608;55.630;37.864;2023-06-19T05:57:02;99708.25;;;22.95;30.17
53715;BME280;39608;55.630;37.864;2023-06-19T06:02:04;99712.28;;;23.28;29.21
53715;BME280;39608;55.630;37.864;2023-06-19T06:07:06;99707.88;;;23.23;28.20
53715;BME280;39608;55.630;37.864;2023-06-19T06:12:10;99708.78;;;23.35;28.48
53715;BME280;39608;55.630;37.864;2023-06-19T06:17:12;99710.44;;;23.73;27.68
53715;BME280;39608;55.630;37.864;2023-06-19T06:22:14;99715.25;;;24.18;26.90
53715;BME280;39608;55.630;37.864;2023-06-19T06:27:18;99710.00;;;24.09;27.69
53715;BME280;39608;55.630;37.864;2023-06-19T06:32:20;99707.53;;;24.41;26.85
53715;BME280;39608;55.630;37.864;2023-06-19T06:37:22;99710.31;;;25.01;26.38
53715;BME280;39608;55.630;37.864;2023-06-19T06:42:25;99715.19;;;25.25;25.87
53715;BME280;39608;55.630;37.864;2023-06-19T06:47:27;99703.63;;;25.09;25.67
53715;BME280;39608;55.630;37.864;2023-06-19T06:52:29;99696.25;;;24.68;25.93
53715;BME280;39608;55.630;37.864;2023-06-19T06:57:34;99700.22;;;24.71;26.20
53715;BME280;39608;55.630;37.864;2023-06-19T07:02:38;99702.56;;;25.35;25.32
53715;BME280;39608;55.630;37.864;2023-06-19T07:07:41;99699.47;;;25.73;25.00
53715;BME280;39608;55.630;37.864;2023-06-19T07:12:48;99688.00;;;25.89;24.42
53715;BME280;39608;55.630;37.864;2023-06-19T07:17:52;99680.13;;;26.02;24.58
53715;BME280;39608;55.630;37.864;2023-06-19T07:22:54;99681.31;;;26.33;24.06
53715;BME280;39608;55.630;37.864;2023-06-19T07:27:58;99688.06;;;26.32;23.63
53715;BME280;39608;55.630;37.864;2023-06-19T07:33:00;99665.75;;;25.64;23.99
53715;BME280;39608;55.630;37.864;2023-06-19T07:38:02;99670.94;;;25.87;24.63
53715;BME280;39608;55.630;37.864;2023-06-19T07:43:05;99681.31;;;26.37;23.88
53715;BME280;39608;55.630;37.864;2023-06-19T07:48:08;99662.16;;;26.86;23.02
53715;BME280;39608;55.630;37.864;2023-06-19T07:53:10;99662.19;;;26.82;22.78
53715;BME280;39608;55.630;37.864;2023-06-19T07:58:14;99669.00;;;26.12;23.21
53715;BME280;39608;55.630;37.864;2023-06-19T08:03:16;99674.97;;;26.36;23.58
53715;BME280;39608;55.630;37.864;2023-06-19T08:08:18;99669.34;;;26.79;22.71
53715;BME280;39608;55.630;37.864;2023-06-19T08:13:21;99666.50;;;26.94;22.21
53715;BME280;39608;55.630;37.864;2023-06-19T08:18:24;99663.38;;;26.59;22.11
53715;BME280;39608;55.630;37.864;2023-06-19T08:23:26;99652.97;;;26.96;21.72
53715;BME280;39608;55.630;37.864;2023-06-19T08:28:30;99665.84;;;27.57;21.41
53715;BME280;39608;55.630;37.864;2023-06-19T08:33:34;99646.97;;;27.12;21.93
53715;BME280;39608;55.630;37.864;2023-06-19T08:38:36;99656.78;;;27.35;22.00
53715;BME280;39608;55.630;37.864;2023-06-19T08:43:39;99642.50;;;27.32;21.79
53715;BME280;39608;55.630;37.864;2023-06-19T08:48:42;99650.00;;;27.46;21.14
53715;BME280;39608;55.630;37.864;2023-06-19T08:53:45;99643.69;;;27.35;20.84
53715;BME280;39608;55.630;37.864;2023-06-19T08:58:49;99638.47;;;27.44;21.01
53715;BME280;39608;55.630;37.864;2023-06-19T09:03:52;99628.03;;;27.59;20.78
53715;BME280;39608;55.630;37.864;2023-06-19T09:08:58;99638.59;;;27.82;20.56
53715;BME280;39608;55.630;37.864;2023-06-19T09:14:02;99642.84;;;27.45;20.11
53715;BME280;39608;55.630;37.864;2023-06-19T09:19:04;99622.34;;;27.00;19.50
53715;BME280;39608;55.630;37.864;2023-06-19T09:24:07;99632.53;;;27.42;20.26
53715;BME280;39608;55.630;37.864;2023-06-19T09:29:12;99630.63;;;27.85;20.00
53715;BME280;39608;55.630;37.864;2023-06-19T09:34:14;99600.53;;;28.52;19.41
53715;BME280;39608;55.630;37.864;2023-06-19T09:39:16;99614.16;;;28.84;18.85
53715;BME280;39608;55.630;37.864;2023-06-19T09:44:22;99624.59;;;29.11;18.05
53715;BME280;39608;55.630;37.864;2023-06-19T09:49:28;99621.91;;;29.35;18.43
53715;BME280;39608;55.630;37.864;2023-06-19T09:54:34;99588.56;;;28.55;18.57
53715;BME280;39608;55.630;37.864;2023-06-19T09:59:40;99610.41;;;28.64;18.72
53715;BME280;39608;55.630;37.864;2023-06-19T10:04:44;99598.03;;;28.99;18.63
53715;BME280;39608;55.630;37.864;2023-06-19T10:09:57;99609.84;;;29.69;18.39
53715;BME280;39608;55.630;37.864;2023-06-19T10:15:08;99598.25;;;30.18;17.38
53715;BME280;39608;55.630;37.864;2023-06-19T10:20:26;99587.03;;;30.42;17.70
53715;BME280;39608;55.630;37.864;2023-06-19T10:25:33;99587.16;;;30.11;17.56
53715;BME280;39608;55.630;37.864;2023-06-19T10:30:36;99589.19;;;30.10;17.63
53715;BME280;39608;55.630;37.864;2023-06-19T10:35:39;99581.19;;;29.89;17.35
53715;BME280;39608;55.630;37.864;2023-06-19T10:40:43;99578.09;;;29.79;17.33
53715;BME280;39608;55.630;37.864;2023-06-19T10:45:47;99570.72;;;30.36;16.79
53715;BME280;39608;55.630;37.864;2023-06-19T10:50:49;99572.31;;;30.78;16.66
53715;BME280;39608;55.630;37.864;2023-06-19T10:55:55;99572.97;;;30.65;16.71
53715;BME280;39608;55.630;37.864;2023-06-19T11:00:58;99569.66;;;30.91;17.22
53715;BME280;39608;55.630;37.864;2023-06-19T11:06:00;99563.03;;;29.73;16.85
53715;BME280;39608;55.630;37.864;2023-06-19T11:11:05;99569.00;;;29.75;16.73
53715;BME280;39608;55.630;37.864;2023-06-19T11:16:08;99562.44;;;30.09;16.66
53715;BME280;39608;55.630;37.864;2023-06-19T11:21:10;99547.22;;;30.10;16.41
53715;BME280;39608;55.630;37.864;2023-06-19T11:26:12;99550.28;;;30.60;16.49
53715;BME280;39608;55.630;37.864;2023-06-19T11:31:16;99539.22;;;30.93;16.25
53715;BME280;39608;55.630;37.864;2023-06-19T11:36:18;99515.31;;;30.51;15.51
53715;BME280;39608;55.630;37.864;2023-06-19T11:41:27;99522.72;;;30.78;16.33
53715;BME280;39608;55.630;37.864;2023-06-19T11:46:31;99514.41;;;31.11;15.87
53715;BME280;39608;55.630;37.864;2023-06-19T11:51:33;99522.25;;;31.00;15.54
53715;BME280;39608;55.630;37.864;2023-06-19T11:56:36;99517.41;;;30.84;15.69
53715;BME280;39608;55.630;37.864;2023-06-19T12:01:40;99508.78;;;30.75;15.80
53715;BME280;39608;55.630;37.864;2023-06-19T12:06:42;99508.22;;;30.03;15.96
53715;BME280;39608;55.630;37.864;2023-06-19T12:11:44;99502.00;;;29.17;16.66
53715;BME280;39608;55.630;37.864;2023-06-19T12:16:48;99513.47;;;28.99;17.07
53715;BME280;39608;55.630;37.864;2023-06-19T12:21:50;99513.44;;;29.30;16.80
53715;BME280;39608;55.630;37.864;2023-06-19T12:26:52;99504.41;;;29.18;16.39
53715;BME280;39608;55.630;37.864;2023-06-19T12:32:00;99484.28;;;29.31;16.84
53715;BME280;39608;55.630;37.864;2023-06-19T12:37:03;99486.00;;;29.72;16.84
53715;BME280;39608;55.630;37.864;2023-06-19T12:42:06;99482.63;;;30.04;16.10
53715;BME280;39608;55.630;37.864;2023-06-19T12:47:09;99493.31;;;30.10;15.93
53715;BME280;39608;55.630;37.864;2023-06-19T12:52:12;99471.94;;;30.19;15.62
53715;BME280;39608;55.630;37.864;2023-06-19T12:57:14;99466.03;;;30.74;15.33
53715;BME280;39608;55.630;37.864;2023-06-19T13:02:17;99464.44;;;30.73;15.81
53715;BME280;39608;55.630;37.864;2023-06-19T13:07:19;99455.25;;;31.09;15.71
53715;BME280;39608;55.630;37.864;2023-06-19T13:12:22;99449.44;;;31.66;15.33
53715;BME280;39608;55.630;37.864;2023-06-19T13:17:25;99448.41;;;31.60;15.53
53715;BME280;39608;55.630;37.864;2023-06-19T13:22:28;99440.53;;;31.05;15.40
53715;BME280;39608;55.630;37.864;2023-06-19T13:27:31;99438.19;;;30.83;15.86
53715;BME280;39608;55.630;37.864;2023-06-19T13:32:34;99432.59;;;30.67;16.28
53715;BME280;39608;55.630;37.864;2023-06-19T13:37:37;99424.59;;;30.65;16.00
53715;BME280;39608;55.630;37.864;2023-06-19T13:42:40;99429.41;;;30.28;15.83
53715;BME280;39608;55.630;37.864;2023-06-19T13:47:43;99417.44;;;30.08;16.07
53715;BME280;39608;55.630;37.864;2023-06-19T13:52:46;99416.78;;;30.00;16.58
53715;BME280;39608;55.630;37.864;2023-06-19T13:57:48;99411.56;;;30.22;16.46
53715;BME280;39608;55.630;37.864;2023-06-19T14:02:51;99424.72;;;30.42;16.07
53715;BME280;39608;55.630;37.864;2023-06-19T14:07:54;99401.94;;;30.43;16.12
53715;BME280;39608;55.630;37.864;2023-06-19T14:12:56;99413.75;;;30.51;16.42
53715;BME280;39608;55.630;37.864;2023-06-19T14:18:00;99407.94;;;30.42;16.21
53715;BME280;39608;55.630;37.864;2023-06-19T14:23:02;99399.56;;;30.21;16.58
53715;BME280;39608;55.630;37.864;2023-06-19T14:28:04;99404.66;;;30.63;16.09
53715;BME280;39608;55.630;37.864;2023-06-19T14:33:08;99394.38;;;30.77;16.16
53715;BME280;39608;55.630;37.864;2023-06-19T14:38:15;99393.13;;;30.78;16.06
53715;BME280;39608;55.630;37.864;2023-06-19T14:43:17;99394.69;;;30.62;16.39
53715;BME280;39608;55.630;37.864;2023-06-19T14:48:21;99381.59;;;30.39;16.39
53715;BME280;39608;55.630;37.864;2023-06-19T14:53:23;99382.53;;;29.96;17.07
53715;BME280;39608;55.630;37.864;2023-06-19T14:58:25;99383.03;;;29.23;17.53
53715;BME280;39608;55.630;37.864;2023-06-19T15:03:30;99384.38;;;28.02;18.44
53715;BME280;39608;55.630;37.864;2023-06-19T15:08:32;99375.75;;;27.06;19.96
53715;BME280;39608;55.630;37.864;2023-06-19T15:13:36;99368.31;;;26.32;19.95
53715;BME280;39608;55.630;37.864;2023-06-19T15:18:39;99365.75;;;25.82;20.78
53715;BME280;39608;55.630;37.864;2023-06-19T15:23:42;99366.97;;;25.62;21.66
53715;BME280;39608;55.630;37.864;2023-06-19T15:28:44;99368.19;;;25.43;21.48
53715;BME280;39608;55.630;37.864;2023-06-19T15:33:49;99362.28;;;25.45;21.65
53715;BME280;39608;55.630;37.864;2023-06-19T15:38:51;99355.13;;;25.33;21.70
53715;BME280;39608;55.630;37.864;2023-06-19T15:43:54;99361.50;;;25.05;22.14
53715;BME280;39608;55.630;37.864;2023-06-19T15:48:57;99363.47;;;24.90;21.76
53715;BME280;39608;55.630;37.864;2023-06-19T15:53:59;99353.56;;;24.74;22.32
53715;BME280;39608;55.630;37.864;2023-06-19T15:59:01;99363.88;;;24.99;21.65
53715;BME280;39608;55.630;37.864;2023-06-19T16:04:05;99366.63;;;24.88;21.60
53715;BME280;39608;55.630;37.864;2023-06-19T16:09:07;99374.56;;;24.75;21.72
53715;BME280;39608;55.630;37.864;2023-06-19T16:14:09;99379.63;;;24.45;21.90
53715;BME280;39608;55.630;37.864;2023-06-19T16:19:13;99364.50;;;24.24;22.33
53715;BME280;39608;55.630;37.864;2023-06-19T16:24:15;99375.56;;;24.09;22.79
53715;BME280;39608;55.630;37.864;2023-06-19T16:29:17;99376.72;;;24.01;23.11
53715;BME280;39608;55.630;37.864;2023-06-19T16:34:20;99367.19;;;23.91;23.20
53715;BME280;39608;55.630;37.864;2023-06-19T16:39:25;99388.75;;;24.52;22.53
53715;BME280;39608;55.630;37.864;2023-06-19T16:44:27;99383.00;;;23.91;23.75
53715;BME280;39608;55.630;37.864;2023-06-19T16:49:31;99372.25;;;23.86;23.98
53715;BME280;39608;55.630;37.864;2023-06-19T16:54:33;99373.44;;;23.81;24.40
53715;BME280;39608;55.630;37.864;2023-06-19T16:59:35;99379.69;;;23.67;24.69
53715;BME280;39608;55.630;37.864;2023-06-19T17:04:39;99380.84;;;23.59;24.60
53715;BME280;39608;55.630;37.864;2023-06-19T17:09:40;99379.97;;;23.48;24.48
53715;BME280;39608;55.630;37.864;2023-06-19T17:14:44;99376.75;;;23.38;24.46
53715;BME280;39608;55.630;37.864;2023-06-19T17:19:47;99379.84;;;23.30;24.56
53715;BME280;39608;55.630;37.864;2023-06-19T17:24:49;99371.69;;;22.99;24.68
53715;BME280;39608;55.630;37.864;2023-06-19T17:29:51;99377.16;;;22.96;24.78
53715;BME280;39608;55.630;37.864;2023-06-19T17:34:55;99383.03;;;22.87;24.59
53715;BME280;39608;55.630;37.864;2023-06-19T17:40:01;99383.34;;;22.78;24.81
53715;BME280;39608;55.630;37.864;2023-06-19T17:45:07;99362.50;;;22.47;24.85
53715;BME280;39608;55.630;37.864;2023-06-19T17:50:11;99382.25;;;22.49;25.37
53715;BME280;39608;55.630;37.864;2023-06-19T17:55:13;99373.25;;;22.21;25.73
53715;BME280;39608;55.630;37.864;2023-06-19T18:00:16;99384.25;;;22.18;26.11
53715;BME280;39608;55.630;37.864;2023-06-19T18:05:20;99386.19;;;22.14;25.85
53715;BME280;39608;55.630;37.864;2023-06-19T18:10:22;99395.63;;;22.09;26.05
53715;BME280;39608;55.630;37.864;2023-06-19T18:15:24;99403.97;;;22.16;26.13
53715;BME280;39608;55.630;37.864;2023-06-19T18:20:28;99411.47;;;21.85;26.77
53715;BME280;39608;55.630;37.864;2023-06-19T18:25:30;99415.44;;;21.88;26.52
53715;BME280;39608;55.630;37.864;2023-06-19T18:30:32;99408.88;;;21.69;26.99
53715;BME280;39608;55.630;37.864;2023-06-19T18:35:36;99407.19;;;21.61;27.51
53715;BME280;39608;55.630;37.864;2023-06-19T18:40:38;99412.53;;;21.50;27.93
53715;BME280;39608;55.630;37.864;2023-06-19T18:45:42;99408.44;;;21.41;28.26
53715;BME280;39608;55.630;37.864;2023-06-19T18:50:46;99414.38;;;21.43;28.47
53715;BME280;39608;55.630;37.864;2023-06-19T18:55:55;99401.91;;;21.26;28.92
53715;BME280;39608;55.630;37.864;2023-06-19T19:00:58;99409.38;;;21.25;29.23
53715;BME280;39608;55.630;37.864;2023-06-19T19:06:01;99422.72;;;21.23;29.51
53715;BME280;39608;55.630;37.864;2023-06-19T19:11:03;99407.75;;;20.97;29.45
53715;BME280;39608;55.630;37.864;2023-06-19T19:16:06;99418.03;;;21.00;29.84
53715;BME280;39608;55.630;37.864;2023-06-19T19:21:09;99423.53;;;21.00;29.99
53715;BME280;39608;55.630;37.864;2023-06-19T19:26:13;99411.84;;;20.84;30.16
53715;BME280;39608;55.630;37.864;2023-06-19T19:31:15;99419.19;;;20.76;30.31
53715;BME280;39608;55.630;37.864;2023-06-19T19:36:19;99388.53;;;20.58;30.65
53715;BME280;39608;55.630;37.864;2023-06-19T19:41:21;99407.31;;;20.72;30.96
53715;BME280;39608;55.630;37.864;2023-06-19T19:46:23;99414.16;;;20.82;30.75
53715;BME280;39608;55.630;37.864;2023-06-19T19:51:26;99399.22;;;20.63;31.10
53715;BME280;39608;55.630;37.864;2023-06-19T19:56:28;99405.06;;;20.58;31.14
53715;BME280;39608;55.630;37.864;2023-06-19T20:01:30;99403.81;;;20.56;31.32
53715;BME280;39608;55.630;37.864;2023-06-19T20:06:34;99404.75;;;20.44;31.72
53715;BME280;39608;55.630;37.864;2023-06-19T20:11:36;99408.19;;;20.37;31.56
53715;BME280;39608;55.630;37.864;2023-06-19T20:16:38;99408.97;;;20.38;32.12
53715;BME280;39608;55.630;37.864;2023-06-19T20:21:41;99400.28;;;20.35;31.74
53715;BME280;39608;55.630;37.864;2023-06-19T20:26:43;99393.19;;;20.34;31.83
53715;BME280;39608;55.630;37.864;2023-06-19T20:31:45;99398.25;;;20.32;31.69
53715;BME280;39608;55.630;37.864;2023-06-19T20:36:49;99397.09;;;20.33;32.25
53715;BME280;39608;55.630;37.864;2023-06-19T20:41:51;99389.25;;;20.35;31.62
53715;BME280;39608;55.630;37.864;2023-06-19T20:46:53;99393.09;;;20.31;31.68
53715;BME280;39608;55.630;37.864;2023-06-19T20:51:56;99392.38;;;20.34;31.82
53715;BME280;39608;55.630;37.864;2023-06-19T20:56:58;99393.91;;;20.31;31.98
53715;BME280;39608;55.630;37.864;2023-06-19T21:02:00;99403.47;;;20.38;31.96
53715;BME280;39608;55.630;37.864;2023-06-19T21:07:04;99395.56;;;20.36;32.65
53715;BME280;39608;55.630;37.864;2023-06-19T21:12:08;99398.91;;;20.26;32.99
53715;BME280;39608;55.630;37.864;2023-06-19T21:17:10;99399.25;;;20.05;33.13
53715;BME280;39608;55.630;37.864;2023-06-19T21:22:13;99396.38;;;19.97;33.40
53715;BME280;39608;55.630;37.864;2023-06-19T21:27:15;99401.72;;;19.90;33.73
53715;BME280;39608;55.630;37.864;2023-06-19T21:32:17;99393.75;;;19.85;33.90
53715;BME280;39608;55.630;37.864;2023-06-19T21:37:21;99396.84;;;19.83;33.71
53715;BME280;39608;55.630;37.864;2023-06-19T21:42:23;99394.28;;;19.75;33.54
53715;BME280;39608;55.630;37.864;2023-06-19T21:47:25;99402.13;;;19.73;33.74
53715;BME280;39608;55.630;37.864;2023-06-19T21:52:28;99398.63;;;19.76;33.91
53715;BME280;39608;55.630;37.864;2023-06-19T21:57:30;99388.78;;;19.75;33.83
53715;BME280;39608;55.630;37.864;2023-06-19T22:02:35;99388.78;;;19.75;33.70
53715;BME280;39608;55.630;37.864;2023-06-19T22:07:38;99389.50;;;19.72;33.93
53715;BME280;39608;55.630;37.864;2023-06-19T22:12:40;99387.91;;;19.71;34.17
53715;BME280;39608;55.630;37.864;2023-06-19T22:17:42;99388.88;;;19.78;34.31
53715;BME280;39608;55.630;37.864;2023-06-19T22:22:47;99379.97;;;19.85;34.99
53715;BME280;39608;55.630;37.864;2023-06-19T22:27:49;99370.75;;;19.77;35.42
53715;BME280;39608;55.630;37.864;2023-06-19T22:32:55;99373.50;;;19.77;35.77
53715;BME280;39608;55.630;37.864;2023-06-19T22:37:58;99351.94;;;19.79;35.85
53715;BME280;39608;55.630;37.864;2023-06-19T22:43:00;99363.91;;;19.87;35.36
53715;BME280;39608;55.630;37.864;2023-06-19T22:48:02;99363.19;;;19.90;35.77
53715;BME280;39608;55.630;37.864;2023-06-19T22:53:06;99363.78;;;19.80;36.99
53715;BME280;39608;55.630;37.864;2023-06-19T22:58:08;99353.09;;;19.78;37.05
53715;BME280;39608;55.630;37.864;2023-06-19T23:03:10;99369.09;;;19.73;37.67
53715;BME280;39608;55.630;37.864;2023-06-19T23:08:13;99354.50;;;19.88;37.63
53715;BME280;39608;55.630;37.864;2023-06-19T23:13:15;99352.78;;;19.80;37.56
53715;BME280;39608;55.630;37.864;2023-06-19T23:18:17;99347.97;;;19.77;37.60
53715;BME280;39608;55.630;37.864;2023-06-19T23:23:21;99343.16;;;19.74;37.21
53715;BME280;39608;55.630;37.864;2023-06-19T23:28:23;99348.63;;;19.54;37.61
53715;BME280;39608;55.630;37.864;2023-06-19T23:33:25;99345.72;;;19.47;37.01
53715;BME280;39608;55.630;37.864;2023-06-19T23:38:29;99339.44;;;19.46;37.92
53715;BME280;39608;55.630;37.864;2023-06-19T23:43:31;99333.47;;;19.44;37.76
53715;BME280;39608;55.630;37.864;2023-06-19T23:48:33;99338.97;;;19.60;36.79
53715;BME280;39608;55.630;37.864;2023-06-19T23:53:36;99332.78;;;19.47;37.67
53715;BME280;39608;55.630;37.864;2023-06-19T23:58:38;99330.03;;;19.47;37.49
